Time;durP1;ratioP1;P1;durP2;ratioP2;P2;SDS_P1;SDS_P2;PMS_P1;PMS_P2;Temp;Humidity;BMP_temperature;BMP_pressure;BME280_temperature;BME280_humidity;BME280_pressure;Samples;Min_cycle;Max_cycle;Signal;HPM_P1;HPM_P2
2023/06/26 00:01:31;;;;;;;4.30;1.50;;;14.80;99.90;;;;;;4993419;28;20081;-71
2023/06/26 00:04:00;;;;;;;6.82;1.40;;;14.80;99.90;;;;;;4975809;28;20030;-74
2023/06/26 00:06:27;;;;;;;6.40;1.50;;;14.70;99.90;;;;;;4993500;28;20113;-72
2023/06/26 00:08:53;;;;;;;6.63;1.60;;;14.70;99.90;;;;;;4993549;28;20258;-73
2023/06/26 00:11:20;;;;;;;4.38;1.40;;;14.70;99.90;;;;;;4993418;28;20037;-73
2023/06/26 00:13:46;;;;;;;4.50;1.42;;;14.70;99.90;;;;;;4993306;28;20084;-74
2023/06/26 00:16:11;;;;;;;4.50;1.48;;;14.70;99.90;;;;;;4993542;28;20034;-72
2023/06/26 00:18:37;;;;;;;8.38;1.60;;;14.70;99.90;;;;;;4993095;28;20291;-73
2023/06/26 00:21:03;;;;;;;4.22;1.45;;;14.60;99.90;;;;;;4993384;28;20026;-73
2023/06/26 00:23:30;;;;;;;5.05;1.60;;;14.60;99.90;;;;;;4993148;28;20117;-75
2023/06/26 00:25:56;;;;;;;7.38;1.52;;;14.50;99.90;;;;;;4993424;28;20468;-72
2023/06/26 00:28:22;;;;;;;6.88;2.03;;;14.50;99.90;;;;;;4993311;28;20023;-72
2023/06/26 00:30:47;;;;;;;6.18;1.70;;;14.50;99.90;;;;;;4993228;28;20045;-72
2023/06/26 00:33:13;;;;;;;6.53;1.77;;;14.50;99.90;;;;;;4992904;28;20023;-72
2023/06/26 00:35:39;;;;;;;9.07;1.55;;;14.50;99.90;;;;;;4992024;28;20030;-73
2023/06/26 00:38:04;;;;;;;4.82;1.40;;;14.40;99.90;;;;;;4992545;28;20030;-73
2023/06/26 00:40:30;;;;;;;3.55;1.50;;;14.40;99.90;;;;;;4992720;28;20059;-72
2023/06/26 00:42:56;;;;;;;4.53;1.58;;;14.30;99.90;;;;;;4993046;28;20034;-73
2023/06/26 00:45:21;;;;;;;3.35;1.50;;;14.20;99.90;;;;;;4992862;28;20025;-74
2023/06/26 00:47:47;;;;;;;7.97;1.48;;;14.20;99.90;;;;;;4992698;28;20495;-73
2023/06/26 00:50:15;;;;;;;7.35;1.60;;;14.20;99.90;;;;;;4993020;28;20110;-76
2023/06/26 00:52:41;;;;;;;4.03;1.60;;;14.20;99.90;;;;;;4992970;28;20027;-72
2023/06/26 00:55:07;;;;;;;5.63;1.50;;;14.10;99.90;;;;;;4993008;28;20038;-72
2023/06/26 00:57:33;;;;;;;5.78;1.67;;;14.10;99.90;;;;;;4992964;28;20034;-72
2023/06/26 01:00:00;;;;;;;5.60;1.45;;;14.00;99.90;;;;;;4993264;28;20081;-75
2023/06/26 01:02:33;;;;;;;4.03;1.52;;;13.90;99.90;;;;;;4992856;28;20023;-72
2023/06/26 01:05:00;;;;;;;4.78;1.35;;;13.90;99.90;;;;;;4993266;28;20060;-73
2023/06/26 01:07:26;;;;;;;5.53;1.50;;;13.90;99.90;;;;;;4993094;28;20042;-72
2023/06/26 01:09:51;;;;;;;3.45;1.10;;;13.90;99.90;;;;;;4992802;28;20027;-72
2023/06/26 01:12:17;;;;;;;5.22;1.17;;;13.80;99.90;;;;;;4992896;28;20493;-75
2023/06/26 01:14:43;;;;;;;4.82;1.40;;;13.80;99.90;;;;;;4992790;28;20105;-72
2023/06/26 01:17:15;;;;;;;8.27;1.27;;;13.80;99.90;;;;;;4992693;28;20034;-72
2023/06/26 01:19:41;;;;;;;4.97;1.50;;;13.80;99.90;;;;;;4975183;28;20388;-72
2023/06/26 01:22:15;;;;;;;6.22;1.52;;;13.70;99.90;;;;;;4992621;28;20027;-72
2023/06/26 01:25:22;;;;;;;4.63;1.50;;;13.70;99.90;;;;;;4992617;28;20106;-76
2023/06/26 01:27:50;;;;;;;6.15;1.58;;;13.70;99.90;;;;;;4932408;29;20051;-71
2023/06/26 01:30:17;;;;;;;10.95;1.55;;;13.60;99.90;;;;;;4932386;29;20036;-72
2023/06/26 01:32:44;;;;;;;5.78;1.70;;;13.70;99.90;;;;;;4932194;29;20028;-70
2023/06/26 01:35:12;;;;;;;9.43;1.65;;;13.60;99.90;;;;;;4932345;29;20630;-73
2023/06/26 01:37:37;;;;;;;8.85;1.50;;;13.60;99.90;;;;;;4932186;29;20051;-71
2023/06/26 01:40:06;;;;;;;6.75;1.70;;;13.60;99.90;;;;;;4946458;28;20078;-71
2023/06/26 01:42:35;;;;;;;9.68;2.05;;;13.60;99.90;;;;;;4970658;28;20070;-75
2023/06/26 01:45:27;;;;;;;3.22;1.35;;;13.60;99.90;;;;;;4970676;28;20493;-76
2023/06/26 01:47:53;;;;;;;7.70;1.70;;;13.60;99.90;;;;;;4970602;28;20042;-74
2023/06/26 01:50:24;;;;;;;3.65;1.30;;;13.60;99.90;;;;;;4974063;28;20042;-72
2023/06/26 01:53:01;;;;;;;9.23;1.48;;;13.50;99.90;;;;;;4974142;28;20038;-73
2023/06/26 01:55:27;;;;;;;11.30;2.03;;;13.60;99.90;;;;;;4974005;28;20043;-74
2023/06/26 01:57:56;;;;;;;6.88;1.50;;;13.60;99.90;;;;;;4973883;28;20027;-74
2023/06/26 02:00:23;;;;;;;10.10;1.70;;;13.60;99.90;;;;;;4973828;28;20035;-72
2023/06/26 02:02:48;;;;;;;3.28;1.70;;;13.60;99.90;;;;;;5013945;28;20049;-74
2023/06/26 02:05:14;;;;;;;7.80;2.05;;;13.60;99.90;;;;;;5015472;28;20026;-72
2023/06/26 02:07:40;;;;;;;7.10;2.33;;;13.60;99.90;;;;;;5015266;28;20100;-72
2023/06/26 02:10:07;;;;;;;3.92;1.45;;;13.60;99.90;;;;;;5015207;28;20065;-72
2023/06/26 02:12:33;;;;;;;6.95;1.85;;;13.60;99.90;;;;;;5015075;28;20029;-72
2023/06/26 02:14:59;;;;;;;9.85;1.95;;;13.60;99.90;;;;;;5014765;28;20030;-72
2023/06/26 02:17:25;;;;;;;5.47;1.50;;;13.60;99.90;;;;;;5015067;28;20161;-71
2023/06/26 02:19:50;;;;;;;11.55;1.70;;;13.50;99.90;;;;;;5013842;28;20033;-72
2023/06/26 02:22:16;;;;;;;6.63;1.73;;;13.50;99.90;;;;;;5015374;28;20040;-72
2023/06/26 02:24:45;;;;;;;4.72;1.83;;;13.50;99.90;;;;;;4997330;28;20034;-74
2023/06/26 02:27:11;;;;;;;6.40;1.88;;;13.50;99.90;;;;;;5014886;28;20041;-72
2023/06/26 02:29:37;;;;;;;3.40;1.50;;;13.50;99.90;;;;;;5014244;28;20443;-72
2023/06/26 02:32:03;;;;;;;7.50;1.65;;;13.50;99.90;;;;;;5015213;28;20034;-73
2023/06/26 02:34:30;;;;;;;6.82;1.83;;;13.50;99.90;;;;;;5015960;28;20033;-73
2023/06/26 02:36:56;;;;;;;7.70;2.13;;;13.50;99.90;;;;;;5016454;28;20026;-74
2023/06/26 02:39:22;;;;;;;6.38;2.38;;;13.40;99.90;;;;;;5014733;28;20414;-72
2023/06/26 02:41:47;;;;;;;2.63;1.55;;;13.40;99.90;;;;;;5014882;28;20049;-73
2023/06/26 02:44:14;;;;;;;4.45;1.63;;;13.40;99.90;;;;;;5014307;28;20025;-73
2023/06/26 02:46:40;;;;;;;5.10;1.77;;;13.40;99.90;;;;;;5013331;28;20392;-71
2023/06/26 02:49:06;;;;;;;5.80;2.05;;;13.40;99.90;;;;;;5014601;28;20084;-74
2023/06/26 02:51:33;;;;;;;10.82;2.00;;;13.40;99.90;;;;;;5014543;28;20484;-74
2023/06/26 02:53:58;;;;;;;3.78;1.65;;;13.40;99.90;;;;;;5014482;28;20041;-74
2023/06/26 02:56:28;;;;;;;7.70;1.80;;;13.40;99.90;;;;;;4996514;28;20033;-72
2023/06/26 02:58:55;;;;;;;4.47;1.50;;;13.40;99.90;;;;;;5014205;28;20038;-73
2023/06/26 03:01:21;;;;;;;6.80;2.30;;;13.40;99.90;;;;;;5014346;28;20034;-72
2023/06/26 03:03:47;;;;;;;9.63;1.83;;;13.40;99.90;;;;;;5015174;28;20109;-71
2023/06/26 03:06:13;;;;;;;4.22;1.67;;;13.40;99.90;;;;;;5015384;28;20567;-74
2023/06/26 03:08:40;;;;;;;6.15;1.85;;;13.40;99.90;;;;;;5015213;28;20061;-73
2023/06/26 03:11:06;;;;;;;3.67;1.63;;;13.40;99.90;;;;;;5014545;28;20026;-73
2023/06/26 03:13:33;;;;;;;4.75;1.83;;;13.40;99.90;;;;;;5014813;28;20402;-73
2023/06/26 03:15:59;;;;;;;6.40;2.00;;;13.40;99.90;;;;;;5015393;28;20088;-72
2023/06/26 03:18:25;;;;;;;6.57;1.80;;;13.40;99.90;;;;;;5014634;28;20026;-72
2023/06/26 03:20:51;;;;;;;8.02;2.10;;;13.50;99.90;;;;;;5014857;28;20053;-75
2023/06/26 03:23:17;;;;;;;4.03;2.05;;;13.50;99.90;;;;;;5014113;28;20033;-74
2023/06/26 03:25:42;;;;;;;6.32;2.20;;;13.40;99.90;;;;;;5014245;28;20034;-71
2023/06/26 03:28:08;;;;;;;6.30;1.92;;;13.40;99.90;;;;;;5014989;28;20109;-75
2023/06/26 03:30:34;;;;;;;6.85;2.15;;;13.50;99.90;;;;;;5015539;28;20026;-72
2023/06/26 03:32:59;;;;;;;5.72;2.40;;;13.50;99.90;;;;;;5014470;28;20468;-72
2023/06/26 03:35:25;;;;;;;6.68;2.20;;;13.50;99.90;;;;;;5014089;28;20026;-71
2023/06/26 03:37:50;;;;;;;7.57;2.63;;;13.50;99.90;;;;;;5014677;28;20045;-73
2023/06/26 03:40:16;;;;;;;6.35;2.30;;;13.50;99.90;;;;;;5015594;28;20057;-74
2023/06/26 03:42:42;;;;;;;10.88;3.40;;;13.50;99.90;;;;;;5013191;28;20041;-73
2023/06/26 03:45:08;;;;;;;4.68;1.95;;;13.50;99.90;;;;;;5015536;28;20030;-72
2023/06/26 03:47:33;;;;;;;5.13;2.25;;;13.50;99.90;;;;;;5012831;28;20106;-74
2023/06/26 03:49:59;;;;;;;5.13;1.92;;;13.50;99.90;;;;;;5013551;28;20033;-72
2023/06/26 03:52:25;;;;;;;6.50;2.28;;;13.50;99.90;;;;;;5012163;28;20539;-72
2023/06/26 03:54:51;;;;;;;7.20;2.30;;;13.50;99.90;;;;;;5011888;28;20068;-73
2023/06/26 03:59:53;;;;;;;4.18;2.30;;;13.50;99.90;;;;;;5012001;28;20113;-73
2023/06/26 04:02:18;;;;;;;4.55;2.05;;;13.50;99.90;;;;;;5011627;28;20030;-74
2023/06/26 04:04:44;;;;;;;7.15;2.08;;;13.50;99.90;;;;;;5013057;28;20056;-72
2023/06/26 04:07:10;;;;;;;7.60;2.22;;;13.50;99.90;;;;;;5013135;28;20033;-72
2023/06/26 04:09:36;;;;;;;7.88;2.03;;;13.50;99.90;;;;;;5013421;28;20109;-74
2023/06/26 04:12:02;;;;;;;11.18;2.50;;;13.50;99.90;;;;;;5012494;28;20065;-72
2023/06/26 04:14:27;;;;;;;6.30;2.00;;;13.50;99.90;;;;;;5012815;28;20431;-72
2023/06/26 04:16:53;;;;;;;6.63;2.20;;;13.40;99.90;;;;;;5013175;28;20037;-72
2023/06/26 04:19:19;;;;;;;5.43;2.78;;;13.40;99.90;;;;;;5013259;28;20029;-74
2023/06/26 04:21:45;;;;;;;4.35;1.80;;;13.40;99.90;;;;;;5011832;28;20057;-72
2023/06/26 04:24:11;;;;;;;5.20;1.92;;;13.40;99.90;;;;;;5012838;28;20065;-72
2023/06/26 04:26:38;;;;;;;7.07;1.98;;;13.30;99.90;;;;;;5012799;28;20062;-72
2023/06/26 04:29:03;;;;;;;10.57;2.35;;;13.30;99.90;;;;;;5012606;28;20057;-73
2023/06/26 04:31:29;;;;;;;6.55;2.17;;;13.30;99.90;;;;;;5012983;28;20057;-72
2023/06/26 04:33:55;;;;;;;7.25;2.05;;;13.30;99.90;;;;;;5012909;28;20053;-73
2023/06/26 04:36:21;;;;;;;7.05;2.20;;;13.30;99.90;;;;;;5012792;28;20034;-71
2023/06/26 04:38:50;;;;;;;7.80;2.33;;;13.30;99.90;;;;;;5012898;28;20068;-72
2023/06/26 04:41:16;;;;;;;7.22;2.72;;;13.30;99.90;;;;;;5012197;28;20073;-72
2023/06/26 04:43:42;;;;;;;5.80;2.40;;;13.30;99.90;;;;;;5012440;28;20216;-72
2023/06/26 04:46:08;;;;;;;6.55;2.08;;;13.30;99.90;;;;;;5011158;28;20491;-72
2023/06/26 04:48:34;;;;;;;4.90;2.50;;;13.30;99.90;;;;;;5012676;28;20084;-72
2023/06/26 04:51:00;;;;;;;7.00;2.17;;;13.30;99.90;;;;;;5012533;28;20078;-74
2023/06/26 04:53:26;;;;;;;10.32;1.95;;;13.30;99.90;;;;;;5012536;28;20472;-74
2023/06/26 04:55:52;;;;;;;5.43;2.00;;;13.30;99.90;;;;;;5012454;28;20030;-72
2023/06/26 04:58:19;;;;;;;6.25;2.50;;;13.40;99.90;;;;;;5012257;28;20030;-74
2023/06/26 05:00:45;;;;;;;6.65;1.88;;;13.40;99.90;;;;;;5012406;28;20042;-73
2023/06/26 05:03:16;;;;;;;5.05;1.85;;;13.50;99.90;;;;;;5012609;28;20029;-73
2023/06/26 05:05:42;;;;;;;3.63;1.83;;;13.50;99.90;;;;;;5012325;28;20030;-72
2023/06/26 05:08:37;;;;;;;3.30;1.90;;;13.60;99.90;;;;;;5012462;28;20064;-72
2023/06/26 05:11:03;;;;;;;3.72;1.55;;;13.70;99.90;;;;;;4999446;28;20066;-70
2023/06/26 05:13:29;;;;;;;4.43;2.08;;;13.70;99.90;;;;;;5012447;28;20396;-71
2023/06/26 05:15:54;;;;;;;10.90;2.80;;;13.70;99.90;;;;;;5012725;28;20036;-73
2023/06/26 05:18:20;;;;;;;4.32;2.17;;;13.80;99.90;;;;;;5012326;28;20037;-71
2023/06/26 05:20:46;;;;;;;4.80;1.52;;;13.80;99.90;;;;;;5012244;28;20444;-74
2023/06/26 05:23:12;;;;;;;6.10;1.95;;;13.90;99.90;;;;;;5012953;28;20472;-73
2023/06/26 05:25:38;;;;;;;5.05;2.10;;;13.90;99.90;;;;;;5016182;28;20423;-73
2023/06/26 05:28:05;;;;;;;3.25;1.65;;;14.00;99.90;;;;;;5015855;28;20030;-73
2023/06/26 05:30:34;;;;;;;5.50;1.73;;;14.00;99.90;;;;;;5016148;28;20113;-73
2023/06/26 05:33:01;;;;;;;6.97;1.85;;;14.00;99.90;;;;;;5015956;28;20044;-73
2023/06/26 05:35:30;;;;;;;8.05;2.40;;;14.00;99.90;;;;;;5015996;28;20501;-72
2023/06/26 05:37:56;;;;;;;5.03;1.90;;;14.10;99.90;;;;;;5015859;28;20037;-72
2023/06/26 05:40:22;;;;;;;6.13;1.95;;;14.10;99.90;;;;;;5015894;28;20050;-72
2023/06/26 05:42:48;;;;;;;4.22;1.75;;;14.10;99.90;;;;;;5016076;28;20030;-72
2023/06/26 05:45:15;;;;;;;10.98;1.98;;;14.10;99.90;;;;;;5016084;28;20032;-74
2023/06/26 05:47:41;;;;;;;6.00;2.03;;;14.10;99.90;;;;;;5015885;28;20132;-73
2023/06/26 05:50:08;;;;;;;5.75;1.90;;;14.10;99.90;;;;;;5016044;28;20423;-72
2023/06/26 05:52:35;;;;;;;4.72;1.80;;;14.10;99.90;;;;;;5015658;28;20101;-72
2023/06/26 05:55:01;;;;;;;3.42;2.10;;;14.10;99.90;;;;;;5015381;28;20029;-70
2023/06/26 05:57:28;;;;;;;8.52;1.90;;;14.10;99.90;;;;;;5015878;28;20543;-72
2023/06/26 05:59:54;;;;;;;5.15;2.05;;;14.20;99.90;;;;;;4997958;28;20466;-72
2023/06/26 06:02:19;;;;;;;8.18;2.38;;;14.20;99.90;;;;;;5015541;28;20033;-73
2023/06/26 06:04:45;;;;;;;6.53;2.10;;;14.30;99.90;;;;;;5015623;28;20034;-70
2023/06/26 06:07:11;;;;;;;9.23;1.80;;;14.40;99.90;;;;;;5015496;28;20061;-73
2023/06/26 06:09:37;;;;;;;9.80;2.00;;;14.50;99.90;;;;;;5015368;28;20080;-73
2023/06/26 06:12:07;;;;;;;5.70;2.10;;;14.50;99.90;;;;;;5015318;28;20101;-73
2023/06/26 06:14:36;;;;;;;6.72;1.77;;;14.60;99.90;;;;;;5015211;28;20041;-72
2023/06/26 06:17:02;;;;;;;9.82;3.28;;;14.70;99.90;;;;;;5015275;28;20037;-73
2023/06/26 06:19:27;;;;;;;9.05;2.13;;;14.70;99.90;;;;;;5015258;28;20218;-72
2023/06/26 06:21:53;;;;;;;9.77;2.28;;;14.80;99.90;;;;;;5014999;28;20026;-72
2023/06/26 06:24:19;;;;;;;6.93;2.30;;;14.80;99.90;;;;;;5014783;28;20033;-71
2023/06/26 06:26:45;;;;;;;8.20;2.17;;;14.90;99.90;;;;;;5014977;28;20030;-71
2023/06/26 06:29:11;;;;;;;6.20;2.35;;;14.90;99.90;;;;;;5015048;28;20033;-72
2023/06/26 06:31:36;;;;;;;6.57;2.20;;;15.00;99.90;;;;;;5014380;28;20084;-73
2023/06/26 06:34:02;;;;;;;6.65;1.80;;;15.00;99.90;;;;;;5014624;28;20030;-73
2023/06/26 06:36:28;;;;;;;8.40;2.10;;;15.00;99.90;;;;;;5012166;28;20097;-73
2023/06/26 06:38:53;;;;;;;17.92;3.08;;;15.00;99.90;;;;;;5012648;28;20721;-73
2023/06/26 06:41:20;;;;;;;6.75;2.45;;;15.10;99.90;;;;;;5013978;28;20510;-70
2023/06/26 06:43:46;;;;;;;6.85;1.90;;;15.10;99.90;;;;;;5014547;28;20029;-74
2023/06/26 06:46:12;;;;;;;15.57;2.55;;;15.10;99.90;;;;;;5013134;28;20458;-73
2023/06/26 06:48:37;;;;;;;8.68;2.85;;;15.10;99.90;;;;;;5012898;28;20533;-72
2023/06/26 06:51:03;;;;;;;8.60;1.80;;;15.20;99.90;;;;;;5013567;28;20101;-73
2023/06/26 06:53:30;;;;;;;5.68;2.10;;;15.20;99.90;;;;;;4995631;28;20034;-74
2023/06/26 06:55:55;;;;;;;11.27;1.98;;;15.20;99.90;;;;;;5013042;28;20034;-73
2023/06/26 06:58:22;;;;;;;8.90;2.10;;;15.20;99.90;;;;;;5013207;28;20403;-71
2023/06/26 07:00:48;;;;;;;6.85;1.90;;;15.30;99.90;;;;;;5012788;28;20033;-71
2023/06/26 07:03:14;;;;;;;8.77;2.50;;;15.40;99.90;;;;;;5013502;28;20036;-72
2023/06/26 07:05:42;;;;;;;9.80;1.83;;;15.30;99.90;;;;;;5013364;28;20022;-72
2023/06/26 07:08:08;;;;;;;9.32;2.50;;;15.30;99.90;;;;;;5012997;28;20029;-73
2023/06/26 07:10:34;;;;;;;10.00;3.05;;;15.40;99.90;;;;;;4995783;28;20380;-71
2023/06/26 07:13:00;;;;;;;8.38;1.80;;;15.50;99.90;;;;;;5013180;28;20049;-73
2023/06/26 07:15:25;;;;;;;9.93;2.10;;;15.60;99.90;;;;;;5013274;28;20149;-73
2023/06/26 07:17:52;;;;;;;10.50;2.17;;;15.60;99.90;;;;;;5013121;28;20026;-72
2023/06/26 07:20:18;;;;;;;8.95;1.90;;;15.60;99.90;;;;;;5013296;28;20243;-75
2023/06/26 07:22:44;;;;;;;10.15;1.75;;;15.60;99.90;;;;;;4995212;28;20128;-73
2023/06/26 07:25:11;;;;;;;13.07;2.17;;;15.70;99.90;;;;;;5012221;28;20034;-72
2023/06/26 07:27:40;;;;;;;7.10;1.77;;;15.70;99.90;;;;;;5012377;28;20080;-74
2023/06/26 07:30:10;;;;;;;14.47;1.87;;;15.80;99.90;;;;;;5012632;28;20030;-72
2023/06/26 07:32:40;;;;;;;9.85;1.73;;;15.80;99.90;;;;;;5012421;28;20080;-71
2023/06/26 07:35:06;;;;;;;5.80;1.60;;;15.90;99.90;;;;;;5012917;28;20026;-72
2023/06/26 07:37:31;;;;;;;17.45;2.40;;;15.90;99.90;;;;;;4994240;28;20036;-73
2023/06/26 07:39:57;;;;;;;6.47;1.60;;;16.00;99.90;;;;;;5012153;28;20056;-72
2023/06/26 07:42:23;;;;;;;6.53;1.25;;;16.00;99.90;;;;;;5013312;28;20025;-71
2023/06/26 07:44:48;;;;;;;7.35;1.48;;;16.10;99.90;;;;;;5013376;28;20360;-74
2023/06/26 07:47:14;;;;;;;12.23;2.00;;;16.20;99.90;;;;;;5012896;28;20080;-75
2023/06/26 07:49:40;;;;;;;5.85;1.38;;;16.20;99.90;;;;;;5013533;28;20427;-72
2023/06/26 07:52:06;;;;;;;4.88;1.75;;;16.30;99.90;;;;;;5013172;28;20117;-72
2023/06/26 07:54:32;;;;;;;7.47;1.60;;;16.40;99.90;;;;;;5013282;28;20045;-73
2023/06/26 07:57:00;;;;;;;8.98;1.80;;;16.40;99.90;;;;;;5013202;28;20467;-73
2023/06/26 07:59:28;;;;;;;10.48;2.00;;;16.50;99.90;;;;;;5011735;28;20037;-72
2023/06/26 08:01:55;;;;;;;8.45;1.73;;;16.60;99.90;;;;;;5011923;28;20025;-74
2023/06/26 08:04:24;;;;;;;7.93;1.52;;;16.60;99.90;;;;;;5012053;28;20034;-72
2023/06/26 08:06:57;;;;;;;4.32;1.30;;;16.70;99.90;;;;;;5011056;28;20044;-72
2023/06/26 08:09:26;;;;;;;10.02;1.50;;;16.70;99.90;;;;;;5012671;28;20060;-73
2023/06/26 08:11:51;;;;;;;5.90;1.60;;;16.80;99.90;;;;;;4995311;28;20121;-72
2023/06/26 08:14:17;;;;;;;5.70;1.65;;;17.00;99.90;;;;;;5013003;28;20069;-74
2023/06/26 08:16:44;;;;;;;6.05;1.85;;;17.10;99.90;;;;;;5012133;28;20062;-72
2023/06/26 08:19:10;;;;;;;5.40;1.45;;;17.30;99.90;;;;;;5010762;28;20030;-72
2023/06/26 08:21:36;;;;;;;6.75;1.00;;;17.50;99.90;;;;;;5010211;28;20027;-72
2023/06/26 08:24:02;;;;;;;9.75;1.60;;;17.50;99.90;;;;;;5007813;28;20028;-72
2023/06/26 08:26:28;;;;;;;5.55;1.25;;;17.50;99.80;;;;;;5010875;28;20456;-74
2023/06/26 08:28:53;;;;;;;5.30;1.30;;;17.50;99.80;;;;;;5011111;28;20120;-72
2023/06/26 08:31:20;;;;;;;5.72;1.63;;;17.60;99.50;;;;;;5011366;28;20114;-73
2023/06/26 08:33:46;;;;;;;8.15;2.03;;;17.70;99.10;;;;;;5011211;28;20026;-74
2023/06/26 08:36:12;;;;;;;6.78;1.50;;;17.80;98.60;;;;;;4994986;28;20076;-73
2023/06/26 08:38:40;;;;;;;4.05;1.20;;;17.80;98.10;;;;;;5012621;28;20052;-72
2023/06/26 08:41:06;;;;;;;6.57;1.08;;;17.80;97.80;;;;;;5012742;28;20081;-73
2023/06/26 08:43:32;;;;;;;7.10;1.63;;;17.80;97.60;;;;;;5012833;28;20022;-71
2023/06/26 08:45:58;;;;;;;15.38;2.33;;;17.80;97.80;;;;;;5012521;28;20167;-74
2023/06/26 08:48:24;;;;;;;6.50;1.42;;;17.80;97.30;;;;;;5012518;28;20133;-73
2023/06/26 08:50:53;;;;;;;6.28;1.92;;;17.90;96.60;;;;;;5012279;28;20523;-73
2023/06/26 08:53:48;;;;;;;6.22;1.05;;;17.90;95.90;;;;;;5011938;28;20045;-73
2023/06/26 08:56:17;;;;;;;6.35;1.42;;;17.90;95.40;;;;;;5012556;28;20029;-73
2023/06/26 08:58:43;;;;;;;4.18;0.98;;;18.00;95.50;;;;;;5013589;28;20117;-73
2023/06/26 09:01:10;;;;;;;9.05;1.45;;;18.00;95.00;;;;;;5016237;28;20073;-72
2023/06/26 09:03:36;;;;;;;5.78;1.20;;;18.10;94.40;;;;;;5016555;28;20038;-73
2023/06/26 09:06:02;;;;;;;10.63;2.10;;;18.20;93.80;;;;;;5015958;28;20041;-73
2023/06/26 09:08:28;;;;;;;14.23;1.80;;;18.30;93.20;;;;;;5016309;28;20165;-73
2023/06/26 09:10:54;;;;;;;3.60;0.90;;;18.40;92.80;;;;;;5016339;28;20468;-74
2023/06/26 09:13:19;;;;;;;4.25;1.35;;;18.60;92.50;;;;;;5016121;28;20463;-74
2023/06/26 09:15:46;;;;;;;5.30;1.08;;;18.70;90.90;;;;;;5015828;28;20038;-74
2023/06/26 09:18:12;;;;;;;7.40;1.27;;;18.70;90.40;;;;;;5015713;28;20026;-73
2023/06/26 09:20:38;;;;;;;5.75;1.10;;;18.90;90.20;;;;;;5015872;28;20065;-73
2023/06/26 09:23:05;;;;;;;4.22;1.10;;;19.00;90.10;;;;;;5016085;28;20038;-73
2023/06/26 09:25:30;;;;;;;4.80;1.00;;;19.20;89.80;;;;;;5016194;28;20022;-73
2023/06/26 09:27:57;;;;;;;3.00;0.85;;;19.40;87.70;;;;;;5015960;28;20380;-73
2023/06/26 09:30:22;;;;;;;8.38;1.00;;;19.40;85.30;;;;;;5016162;28;20070;-73
2023/06/26 09:32:50;;;;;;;5.88;1.55;;;19.50;84.70;;;;;;5015475;28;20117;-73
2023/06/26 09:35:16;;;;;;;9.48;1.10;;;19.50;83.90;;;;;;5015723;28;20026;-73
2023/06/26 09:37:43;;;;;;;9.02;1.30;;;19.60;82.70;;;;;;5016544;28;20030;-73
2023/06/26 09:40:09;;;;;;;8.95;1.55;;;19.60;82.10;;;;;;5015759;28;20057;-72
2023/06/26 09:42:35;;;;;;;6.50;1.10;;;19.70;81.30;;;;;;5015499;28;20026;-70
2023/06/26 09:45:02;;;;;;;6.05;1.13;;;19.80;81.20;;;;;;4998102;28;20112;-70
2023/06/26 09:47:31;;;;;;;3.13;0.85;;;20.10;80.90;;;;;;5015227;28;20065;-73
2023/06/26 09:49:57;;;;;;;3.80;0.85;;;20.10;79.60;;;;;;4997655;28;20498;-72
2023/06/26 09:52:26;;;;;;;3.08;1.05;;;20.20;79.30;;;;;;5015982;28;20037;-72
2023/06/26 09:55:07;;;;;;;4.93;1.00;;;20.30;79.50;;;;;;5015199;28;20018;-72
2023/06/26 09:57:34;;;;;;;2.25;1.10;;;20.30;78.80;;;;;;5012983;28;20029;-72
2023/06/26 10:00:02;;;;;;;6.05;0.93;;;20.10;78.30;;;;;;5016057;28;20018;-73
2023/06/26 10:02:28;;;;;;;4.00;0.90;;;20.10;78.30;;;;;;5022681;28;20065;-73
2023/06/26 10:04:54;;;;;;;3.88;0.77;;;20.00;78.10;;;;;;5025596;28;20068;-73
2023/06/26 10:07:22;;;;;;;5.28;0.98;;;19.90;78.40;;;;;;5024841;28;20038;-73
2023/06/26 10:09:50;;;;;;;5.53;1.10;;;19.90;78.80;;;;;;5023264;28;20026;-74
2023/06/26 10:12:30;;;;;;;4.95;1.25;;;20.00;79.10;;;;;;5015136;28;20147;-73
2023/06/26 10:14:57;;;;;;;12.00;2.17;;;20.20;79.30;;;;;;5013116;28;20030;-73
2023/06/26 10:17:25;;;;;;;5.05;1.10;;;20.40;79.00;;;;;;5014263;28;20033;-73
2023/06/26 10:19:53;;;;;;;3.35;1.10;;;20.60;78.10;;;;;;5014378;28;20036;-74
2023/06/26 10:22:21;;;;;;;6.63;1.00;;;20.70;76.80;;;;;;5014602;28;20383;-73
2023/06/26 10:24:49;;;;;;;7.60;1.17;;;20.80;76.50;;;;;;5015000;28;20018;-73
2023/06/26 10:27:19;;;;;;;6.03;1.10;;;20.90;75.20;;;;;;5014582;28;20038;-72
2023/06/26 10:29:48;;;;;;;2.80;0.95;;;20.90;74.80;;;;;;5015248;28;20083;-73
2023/06/26 10:32:15;;;;;;;5.47;1.10;;;21.00;75.00;;;;;;5014804;28;20030;-73
2023/06/26 10:34:42;;;;;;;3.60;0.98;;;21.10;74.70;;;;;;5014624;28;20786;-72
2023/06/26 10:37:08;;;;;;;3.28;0.80;;;21.30;74.20;;;;;;5014831;28;20048;-73
2023/06/26 10:39:49;;;;;;;3.58;1.20;;;21.50;73.50;;;;;;5014163;28;20169;-73
2023/06/26 10:42:17;;;;;;;4.43;0.90;;;21.50;73.20;;;;;;5014979;28;20026;-73
2023/06/26 10:44:44;;;;;;;2.38;0.70;;;21.30;71.90;;;;;;5014703;28;20030;-74
2023/06/26 10:47:11;;;;;;;5.55;0.98;;;21.10;71.70;;;;;;5014808;28;20514;-73
2023/06/26 10:49:39;;;;;;;7.70;1.13;;;20.80;72.10;;;;;;4997898;28;20093;-73
2023/06/26 10:52:05;;;;;;;4.70;1.08;;;20.70;72.60;;;;;;4997175;28;20030;-73
2023/06/26 10:54:34;;;;;;;3.20;0.88;;;20.60;73.10;;;;;;5016099;28;20032;-73
2023/06/26 10:57:02;;;;;;;2.63;0.80;;;20.50;73.50;;;;;;5015647;28;20030;-72
2023/06/26 10:59:29;;;;;;;5.93;0.98;;;20.40;74.20;;;;;;5015016;28;20097;-73
2023/06/26 11:01:56;;;;;;;2.08;1.20;;;20.60;74.60;;;;;;5015208;28;20053;-73
2023/06/26 11:04:39;;;;;;;4.13;1.10;;;20.90;74.20;;;;;;5014856;28;20472;-73
2023/06/26 11:07:24;;;;;;;3.28;0.95;;;21.20;73.50;;;;;;5014662;28;20062;-71
2023/06/26 11:10:08;;;;;;;7.10;1.35;;;21.30;72.80;;;;;;5015713;28;20441;-73
2023/06/26 11:12:36;;;;;;;5.10;0.88;;;21.40;72.50;;;;;;5013644;28;20488;-74
2023/06/26 11:15:03;;;;;;;2.50;0.73;;;21.40;72.50;;;;;;5014215;28;20549;-74
2023/06/26 11:17:29;;;;;;;3.97;0.90;;;21.30;72.20;;;;;;5014709;28;20491;-74
2023/06/26 11:19:55;;;;;;;3.50;1.00;;;21.40;72.50;;;;;;5013999;28;20053;-73
2023/06/26 11:22:23;;;;;;;2.67;0.90;;;21.40;72.10;;;;;;5014420;28;20061;-73
2023/06/26 11:24:54;;;;;;;3.42;1.08;;;21.50;71.70;;;;;;5013643;28;20022;-73
2023/06/26 11:27:23;;;;;;;;;;;21.60;71.20;;;;;;5014803;28;20441;-74
2023/06/26 11:29:51;;;;;;;5.97;0.90;;;21.60;70.30;;;;;;5014077;28;19920;-73
2023/06/26 11:32:17;;;;;;;3.58;1.02;;;21.40;70.20;;;;;;5014197;28;20030;-73
2023/06/26 11:34:43;;;;;;;3.83;0.85;;;21.10;70.30;;;;;;5012517;28;20062;-73
2023/06/26 11:37:09;;;;;;;6.13;1.02;;;20.90;70.80;;;;;;5012362;28;20037;-72
2023/06/26 11:39:37;;;;;;;5.10;0.90;;;20.70;71.50;;;;;;5015205;28;20464;-73
2023/06/26 11:42:03;;;;;;;3.83;0.73;;;20.60;71.70;;;;;;5016217;28;20026;-73
2023/06/26 11:44:32;;;;;;;3.38;0.93;;;20.70;72.20;;;;;;5014213;28;20073;-73
2023/06/26 11:46:58;;;;;;;3.63;0.80;;;20.90;72.00;;;;;;5013769;28;20083;-71
2023/06/26 11:49:26;;;;;;;8.18;1.20;;;21.00;71.90;;;;;;5013906;28;20108;-74
2023/06/26 11:51:54;;;;;;;5.30;1.02;;;21.00;71.80;;;;;;5015646;28;20018;-74
2023/06/26 11:54:27;;;;;;;5.53;0.90;;;20.90;71.50;;;;;;5013606;28;20056;-73
2023/06/26 11:56:57;;;;;;;5.32;1.00;;;20.70;71.80;;;;;;5013581;28;20427;-72
2023/06/26 11:59:23;;;;;;;4.22;0.85;;;20.60;72.20;;;;;;5013617;28;20030;-72
2023/06/26 12:01:51;;;;;;;5.55;1.10;;;20.40;72.30;;;;;;4996306;28;20040;-71
2023/06/26 12:04:19;;;;;;;7.13;0.98;;;20.20;72.20;;;;;;5013418;28;20056;-72
2023/06/26 12:06:49;;;;;;;7.30;1.10;;;20.00;72.40;;;;;;5013733;28;20037;-71
2023/06/26 12:09:18;;;;;;;6.63;1.20;;;19.90;72.90;;;;;;5014035;28;20033;-72
2023/06/26 12:11:48;;;;;;;6.60;1.00;;;20.20;73.20;;;;;;5014210;28;20032;-71
2023/06/26 12:14:14;;;;;;;4.13;1.17;;;20.60;73.20;;;;;;5017126;28;20034;-74
2023/06/26 12:16:40;;;;;;;3.10;1.27;;;21.10;72.90;;;;;;5013463;28;20064;-70
2023/06/26 12:19:07;;;;;;;5.05;0.95;;;21.30;71.30;;;;;;5013169;28;20032;-70
2023/06/26 12:21:41;;;;;;;3.15;0.88;;;21.30;70.90;;;;;;5013112;28;20419;-74
2023/06/26 12:24:13;;;;;;;1.45;0.60;;;21.10;70.50;;;;;;5012954;28;20030;-72
2023/06/26 12:26:41;;;;;;;2.60;1.00;;;21.00;70.80;;;;;;5012944;28;20042;-73
2023/06/26 12:29:11;;;;;;;2.10;0.75;;;20.80;71.10;;;;;;5013048;28;20026;-73
2023/06/26 12:31:59;;;;;;;6.13;1.35;;;20.60;71.50;;;;;;5012931;28;20051;-73
2023/06/26 12:34:34;;;;;;;4.15;0.93;;;20.40;72.20;;;;;;5011359;28;20037;-72
2023/06/26 12:37:08;;;;;;;2.55;0.90;;;20.30;73.20;;;;;;5012896;28;20109;-74
2023/06/26 12:39:54;;;;;;;6.40;1.42;;;20.10;73.70;;;;;;5012779;28;20503;-70
2023/06/26 12:42:24;;;;;;;5.38;1.00;;;19.90;74.10;;;;;;4994699;28;20129;-74
2023/06/26 12:44:51;;;;;;;3.92;1.45;;;19.70;74.30;;;;;;5012569;28;20483;-73
2023/06/26 12:47:19;;;;;;;6.97;1.05;;;19.60;74.40;;;;;;5012667;28;20037;-73
2023/06/26 12:49:49;;;;;;;5.13;0.93;;;19.50;74.40;;;;;;5012520;28;20030;-73